Eagle Mountain, Utah
Current Conditions -  °F | °C
As of 6:58 AM on Saturday 25 Oct 2014 (Local Time) from KPVU Reporting Station
Clear Clear  
Wind Chill: 43°   Ceiling: Unl
Heat Index: 46°   Visibility: 15mi
Dew Point: 28°   Wind: 7mph
Humidity: 50%   Direction: 90°E
Pressure: 30.14"   Gusts: NA
Location:  40.34°N, 111.95°W
Report Text: KPVU 251258Z 09006KT 15SM SKC 08/M02 A3014
Loading
Personal Weather Stations






























Interactive Weather Map
Tropical Storm Tracking
New forecast layout! Learn more

10-Day Weather Forecast

Advertisements
Track Severe Weather on mobile